sensor_id;sensor_type;location;lat;lon;timestamp;P1;durP1;ratioP1;P2;durP2;ratioP2
77870;SDS011;67067;46.850;7.578;2023-04-25T00:00:52;6.63;;;3.00;;
77870;SDS011;67067;46.850;7.578;2023-04-25T00:01:59;16.65;;;3.30;;
77870;SDS011;67067;46.850;7.578;2023-04-25T00:03:01;9.05;;;3.00;;
77870;SDS011;67067;46.850;7.578;2023-04-25T00:04:03;6.13;;;2.63;;
77870;SDS011;67067;46.850;7.578;2023-04-25T00:05:07;6.70;;;3.03;;
77870;SDS011;67067;46.850;7.578;2023-04-25T00:06:09;6.80;;;2.72;;
77870;SDS011;67067;46.850;7.578;2023-04-25T00:08:15;7.32;;;3.00;;
77870;SDS011;67067;46.850;7.578;2023-04-25T00:09:19;8.65;;;3.03;;
77870;SDS011;67067;46.850;7.578;2023-04-25T00:10:23;9.15;;;3.10;;
77870;SDS011;67067;46.850;7.578;2023-04-25T00:11:25;6.38;;;3.30;;
77870;SDS011;67067;46.850;7.578;2023-04-25T00:12:27;11.02;;;3.38;;
77870;SDS011;67067;46.850;7.578;2023-04-25T00:13:31;5.00;;;2.97;;
77870;SDS011;67067;46.850;7.578;2023-04-25T00:14:35;5.70;;;3.20;;
77870;SDS011;67067;46.850;7.578;2023-04-25T00:15:37;8.02;;;3.25;;
77870;SDS011;67067;46.850;7.578;2023-04-25T00:16:39;10.30;;;3.20;;
77870;SDS011;67067;46.850;7.578;2023-04-25T00:17:42;8.07;;;3.47;;
77870;SDS011;67067;46.850;7.578;2023-04-25T00:19:52;9.43;;;2.90;;
77870;SDS011;67067;46.850;7.578;2023-04-25T00:21:55;7.80;;;2.50;;
77870;SDS011;67067;46.850;7.578;2023-04-25T00:23:59;8.30;;;2.85;;
77870;SDS011;67067;46.850;7.578;2023-04-25T00:25:01;6.97;;;2.65;;
77870;SDS011;67067;46.850;7.578;2023-04-25T00:26:04;5.22;;;2.92;;
77870;SDS011;67067;46.850;7.578;2023-04-25T00:28:08;5.30;;;3.03;;
77870;SDS011;67067;46.850;7.578;2023-04-25T00:30:12;7.40;;;2.70;;
77870;SDS011;67067;46.850;7.578;2023-04-25T00:31:14;6.82;;;2.60;;
77870;SDS011;67067;46.850;7.578;2023-04-25T00:33:17;6.07;;;2.67;;
77870;SDS011;67067;46.850;7.578;2023-04-25T00:34:19;4.80;;;2.28;;
77870;SDS011;67067;46.850;7.578;2023-04-25T00:35:21;8.98;;;2.72;;
77870;SDS011;67067;46.850;7.578;2023-04-25T00:36:23;8.18;;;2.63;;
77870;SDS011;67067;46.850;7.578;2023-04-25T00:38:26;7.97;;;2.97;;
77870;SDS011;67067;46.850;7.578;2023-04-25T00:39:30;6.57;;;2.70;;
77870;SDS011;67067;46.850;7.578;2023-04-25T00:40:35;8.52;;;3.00;;
77870;SDS011;67067;46.850;7.578;2023-04-25T00:41:37;6.03;;;2.58;;
77870;SDS011;67067;46.850;7.578;2023-04-25T00:42:39;5.72;;;2.40;;
77870;SDS011;67067;46.850;7.578;2023-04-25T00:43:45;6.07;;;2.55;;
77870;SDS011;67067;46.850;7.578;2023-04-25T00:44:49;11.85;;;3.03;;
77870;SDS011;67067;46.850;7.578;2023-04-25T00:45:51;5.30;;;2.60;;
77870;SDS011;67067;46.850;7.578;2023-04-25T00:46:53;7.38;;;2.83;;
77870;SDS011;67067;46.850;7.578;2023-04-25T00:47:58;4.22;;;2.38;;
77870;SDS011;67067;46.850;7.578;2023-04-25T00:49:02;5.85;;;2.35;;
77870;SDS011;67067;46.850;7.578;2023-04-25T00:50:04;4.68;;;2.60;;
77870;SDS011;67067;46.850;7.578;2023-04-25T00:51:06;7.82;;;2.60;;
77870;SDS011;67067;46.850;7.578;2023-04-25T00:52:09;6.25;;;2.72;;
77870;SDS011;67067;46.850;7.578;2023-04-25T00:53:11;8.60;;;2.65;;
77870;SDS011;67067;46.850;7.578;2023-04-25T00:55:15;6.90;;;2.85;;
77870;SDS011;67067;46.850;7.578;2023-04-25T00:56:17;6.97;;;2.55;;
77870;SDS011;67067;46.850;7.578;2023-04-25T00:57:21;10.50;;;2.88;;
77870;SDS011;67067;46.850;7.578;2023-04-25T00:58:26;5.85;;;2.80;;
77870;SDS011;67067;46.850;7.578;2023-04-25T00:59:33;5.68;;;2.70;;
77870;SDS011;67067;46.850;7.578;2023-04-25T01:00:34;5.82;;;2.25;;
77870;SDS011;67067;46.850;7.578;2023-04-25T01:01:37;3.25;;;2.67;;
77870;SDS011;67067;46.850;7.578;2023-04-25T01:02:40;6.57;;;2.63;;
77870;SDS011;67067;46.850;7.578;2023-04-25T01:03:46;13.82;;;3.00;;
77870;SDS011;67067;46.850;7.578;2023-04-25T01:04:48;6.75;;;2.70;;
77870;SDS011;67067;46.850;7.578;2023-04-25T01:05:50;10.50;;;2.58;;
77870;SDS011;67067;46.850;7.578;2023-04-25T01:06:57;6.38;;;2.65;;
77870;SDS011;67067;46.850;7.578;2023-04-25T01:07:59;6.25;;;2.72;;
77870;SDS011;67067;46.850;7.578;2023-04-25T01:10:03;4.13;;;2.30;;
77870;SDS011;67067;46.850;7.578;2023-04-25T01:11:07;8.35;;;2.83;;
77870;SDS011;67067;46.850;7.578;2023-04-25T01:12:12;7.38;;;3.03;;
77870;SDS011;67067;46.850;7.578;2023-04-25T01:13:14;8.45;;;3.10;;
77870;SDS011;67067;46.850;7.578;2023-04-25T01:14:18;9.90;;;2.70;;
77870;SDS011;67067;46.850;7.578;2023-04-25T01:15:20;5.65;;;2.78;;
77870;SDS011;67067;46.850;7.578;2023-04-25T01:16:22;8.18;;;2.97;;
77870;SDS011;67067;46.850;7.578;2023-04-25T01:17:25;8.02;;;2.90;;
77870;SDS011;67067;46.850;7.578;2023-04-25T01:19:28;8.05;;;2.58;;
77870;SDS011;67067;46.850;7.578;2023-04-25T01:20:33;6.13;;;2.53;;
77870;SDS011;67067;46.850;7.578;2023-04-25T01:21:35;7.78;;;3.00;;
77870;SDS011;67067;46.850;7.578;2023-04-25T01:25:43;8.40;;;2.65;;
77870;SDS011;67067;46.850;7.578;2023-04-25T01:26:46;7.13;;;3.03;;
77870;SDS011;67067;46.850;7.578;2023-04-25T01:27:56;7.32;;;2.92;;
77870;SDS011;67067;46.850;7.578;2023-04-25T01:29:02;8.23;;;2.80;;
77870;SDS011;67067;46.850;7.578;2023-04-25T01:30:06;7.78;;;3.08;;
77870;SDS011;67067;46.850;7.578;2023-04-25T01:31:09;7.40;;;2.75;;
77870;SDS011;67067;46.850;7.578;2023-04-25T01:32:12;6.18;;;2.78;;
77870;SDS011;67067;46.850;7.578;2023-04-25T01:33:17;6.45;;;2.55;;
77870;SDS011;67067;46.850;7.578;2023-04-25T01:34:22;5.40;;;2.53;;
77870;SDS011;67067;46.850;7.578;2023-04-25T01:35:24;6.60;;;2.90;;
77870;SDS011;67067;46.850;7.578;2023-04-25T01:36:28;6.22;;;2.50;;
77870;SDS011;67067;46.850;7.578;2023-04-25T01:37:30;10.55;;;3.10;;
77870;SDS011;67067;46.850;7.578;2023-04-25T01:38:32;6.60;;;3.00;;
77870;SDS011;67067;46.850;7.578;2023-04-25T01:39:36;7.15;;;2.72;;
77870;SDS011;67067;46.850;7.578;2023-04-25T01:40:40;8.20;;;2.90;;
77870;SDS011;67067;46.850;7.578;2023-04-25T01:41:42;7.88;;;2.78;;
77870;SDS011;67067;46.850;7.578;2023-04-25T01:42:44;5.63;;;2.60;;
77870;SDS011;67067;46.850;7.578;2023-04-25T01:43:47;8.70;;;2.85;;
77870;SDS011;67067;46.850;7.578;2023-04-25T01:44:49;6.07;;;2.70;;
77870;SDS011;67067;46.850;7.578;2023-04-25T01:45:51;6.05;;;2.83;;
77870;SDS011;67067;46.850;7.578;2023-04-25T01:46:53;7.93;;;3.00;;
77870;SDS011;67067;46.850;7.578;2023-04-25T01:47:55;5.63;;;2.92;;
77870;SDS011;67067;46.850;7.578;2023-04-25T01:49:01;9.85;;;2.97;;
77870;SDS011;67067;46.850;7.578;2023-04-25T01:50:03;9.55;;;3.13;;
77870;SDS011;67067;46.850;7.578;2023-04-25T01:51:07;4.38;;;2.55;;
77870;SDS011;67067;46.850;7.578;2023-04-25T01:52:09;7.20;;;2.88;;
77870;SDS011;67067;46.850;7.578;2023-04-25T01:53:10;7.88;;;2.80;;
77870;SDS011;67067;46.850;7.578;2023-04-25T01:54:18;6.57;;;2.65;;
77870;SDS011;67067;46.850;7.578;2023-04-25T01:55:23;8.80;;;2.88;;
77870;SDS011;67067;46.850;7.578;2023-04-25T01:56:36;3.42;;;2.40;;
77870;SDS011;67067;46.850;7.578;2023-04-25T01:57:40;6.68;;;2.45;;
77870;SDS011;67067;46.850;7.578;2023-04-25T01:58:45;9.57;;;3.05;;
77870;SDS011;67067;46.850;7.578;2023-04-25T02:00:00;5.28;;;3.20;;
77870;SDS011;67067;46.850;7.578;2023-04-25T02:01:13;6.43;;;2.95;;
77870;SDS011;67067;46.850;7.578;2023-04-25T02:02:21;11.18;;;3.67;;
77870;SDS011;67067;46.850;7.578;2023-04-25T02:03:24;12.15;;;3.60;;
77870;SDS011;67067;46.850;7.578;2023-04-25T02:04:26;8.40;;;3.00;;
77870;SDS011;67067;46.850;7.578;2023-04-25T02:05:33;10.25;;;3.50;;
77870;SDS011;67067;46.850;7.578;2023-04-25T02:06:36;9.45;;;3.05;;
77870;SDS011;67067;46.850;7.578;2023-04-25T02:07:37;6.30;;;2.80;;
77870;SDS011;67067;46.850;7.578;2023-04-25T02:09:41;8.15;;;2.92;;
77870;SDS011;67067;46.850;7.578;2023-04-25T02:10:45;7.50;;;3.55;;
77870;SDS011;67067;46.850;7.578;2023-04-25T02:11:49;9.77;;;3.22;;
77870;SDS011;67067;46.850;7.578;2023-04-25T02:13:22;13.88;;;3.60;;
77870;SDS011;67067;46.850;7.578;2023-04-25T02:14:36;8.05;;;3.67;;
77870;SDS011;67067;46.850;7.578;2023-04-25T02:15:56;8.35;;;2.92;;
77870;SDS011;67067;46.850;7.578;2023-04-25T02:17:00;9.57;;;3.30;;
77870;SDS011;67067;46.850;7.578;2023-04-25T02:18:04;5.22;;;2.80;;
77870;SDS011;67067;46.850;7.578;2023-04-25T02:19:07;6.78;;;3.05;;
77870;SDS011;67067;46.850;7.578;2023-04-25T02:20:09;7.05;;;3.47;;
77870;SDS011;67067;46.850;7.578;2023-04-25T02:21:14;8.68;;;2.95;;
77870;SDS011;67067;46.850;7.578;2023-04-25T02:22:17;7.93;;;3.17;;
77870;SDS011;67067;46.850;7.578;2023-04-25T02:23:20;8.52;;;3.35;;
77870;SDS011;67067;46.850;7.578;2023-04-25T02:24:23;5.18;;;2.83;;
77870;SDS011;67067;46.850;7.578;2023-04-25T02:25:27;9.27;;;2.78;;
77870;SDS011;67067;46.850;7.578;2023-04-25T02:26:29;7.10;;;3.00;;
77870;SDS011;67067;46.850;7.578;2023-04-25T02:27:33;6.60;;;2.88;;
77870;SDS011;67067;46.850;7.578;2023-04-25T02:28:35;5.03;;;2.38;;
77870;SDS011;67067;46.850;7.578;2023-04-25T02:29:39;4.55;;;2.50;;
77870;SDS011;67067;46.850;7.578;2023-04-25T02:30:42;5.25;;;3.00;;
77870;SDS011;67067;46.850;7.578;2023-04-25T02:32:46;6.50;;;2.55;;
77870;SDS011;67067;46.850;7.578;2023-04-25T02:33:48;5.85;;;3.03;;
77870;SDS011;67067;46.850;7.578;2023-04-25T02:34:50;6.80;;;2.67;;
77870;SDS011;67067;46.850;7.578;2023-04-25T02:36:55;7.38;;;3.40;;
77870;SDS011;67067;46.850;7.578;2023-04-25T02:38:59;5.80;;;2.45;;
77870;SDS011;67067;46.850;7.578;2023-04-25T02:40:01;4.47;;;2.72;;
77870;SDS011;67067;46.850;7.578;2023-04-25T02:41:06;5.30;;;3.05;;
77870;SDS011;67067;46.850;7.578;2023-04-25T02:43:11;2.90;;;2.58;;
77870;SDS011;67067;46.850;7.578;2023-04-25T02:44:12;4.38;;;2.63;;
77870;SDS011;67067;46.850;7.578;2023-04-25T02:45:17;7.45;;;2.88;;
77870;SDS011;67067;46.850;7.578;2023-04-25T02:46:18;3.60;;;2.30;;
77870;SDS011;67067;46.850;7.578;2023-04-25T02:47:42;7.45;;;2.72;;
77870;SDS011;67067;46.850;7.578;2023-04-25T02:48:45;6.35;;;2.35;;
77870;SDS011;67067;46.850;7.578;2023-04-25T02:49:46;4.25;;;2.20;;
77870;SDS011;67067;46.850;7.578;2023-04-25T02:50:48;8.43;;;2.75;;
77870;SDS011;67067;46.850;7.578;2023-04-25T02:51:52;8.23;;;2.47;;
77870;SDS011;67067;46.850;7.578;2023-04-25T02:54:01;5.65;;;2.40;;
77870;SDS011;67067;46.850;7.578;2023-04-25T02:55:03;5.00;;;2.33;;
77870;SDS011;67067;46.850;7.578;2023-04-25T02:56:08;10.70;;;2.97;;
77870;SDS011;67067;46.850;7.578;2023-04-25T02:57:10;5.18;;;2.75;;
77870;SDS011;67067;46.850;7.578;2023-04-25T02:59:19;9.00;;;2.83;;
77870;SDS011;67067;46.850;7.578;2023-04-25T03:00:21;4.05;;;2.40;;
77870;SDS011;67067;46.850;7.578;2023-04-25T03:01:23;4.35;;;2.55;;
77870;SDS011;67067;46.850;7.578;2023-04-25T03:02:25;5.47;;;2.47;;
77870;SDS011;67067;46.850;7.578;2023-04-25T03:03:29;7.18;;;2.38;;
77870;SDS011;67067;46.850;7.578;2023-04-25T03:05:34;2.85;;;2.35;;
77870;SDS011;67067;46.850;7.578;2023-04-25T03:07:40;2.45;;;2.25;;
77870;SDS011;67067;46.850;7.578;2023-04-25T03:08:44;5.38;;;2.33;;
77870;SDS011;67067;46.850;7.578;2023-04-25T03:09:45;5.35;;;2.60;;
77870;SDS011;67067;46.850;7.578;2023-04-25T03:11:50;5.80;;;2.10;;
77870;SDS011;67067;46.850;7.578;2023-04-25T03:12:52;5.88;;;2.17;;
77870;SDS011;67067;46.850;7.578;2023-04-25T03:14:58;4.80;;;2.08;;
77870;SDS011;67067;46.850;7.578;2023-04-25T03:17:04;5.97;;;1.88;;
77870;SDS011;67067;46.850;7.578;2023-04-25T03:18:09;4.22;;;2.20;;
77870;SDS011;67067;46.850;7.578;2023-04-25T03:19:10;6.35;;;2.10;;
77870;SDS011;67067;46.850;7.578;2023-04-25T03:20:12;3.95;;;2.20;;
77870;SDS011;67067;46.850;7.578;2023-04-25T03:21:16;3.72;;;1.73;;
77870;SDS011;67067;46.850;7.578;2023-04-25T03:22:18;4.13;;;2.30;;
77870;SDS011;67067;46.850;7.578;2023-04-25T03:23:20;4.15;;;2.17;;
77870;SDS011;67067;46.850;7.578;2023-04-25T03:25:26;7.57;;;2.75;;
77870;SDS011;67067;46.850;7.578;2023-04-25T03:26:30;4.55;;;2.40;;
77870;SDS011;67067;46.850;7.578;2023-04-25T03:27:33;4.68;;;2.40;;
77870;SDS011;67067;46.850;7.578;2023-04-25T03:28:36;6.68;;;2.80;;
77870;SDS011;67067;46.850;7.578;2023-04-25T03:30:39;4.93;;;2.28;;
77870;SDS011;67067;46.850;7.578;2023-04-25T03:31:41;4.70;;;2.30;;
77870;SDS011;67067;46.850;7.578;2023-04-25T03:32:43;5.47;;;2.63;;
77870;SDS011;67067;46.850;7.578;2023-04-25T03:33:49;3.90;;;2.17;;
77870;SDS011;67067;46.850;7.578;2023-04-25T03:34:54;5.57;;;2.42;;
77870;SDS011;67067;46.850;7.578;2023-04-25T03:35:57;3.47;;;2.45;;
77870;SDS011;67067;46.850;7.578;2023-04-25T03:37:04;4.50;;;2.17;;
77870;SDS011;67067;46.850;7.578;2023-04-25T03:38:11;5.70;;;2.38;;
77870;SDS011;67067;46.850;7.578;2023-04-25T03:39:14;4.63;;;2.03;;
77870;SDS011;67067;46.850;7.578;2023-04-25T03:40:20;4.13;;;2.60;;
77870;SDS011;67067;46.850;7.578;2023-04-25T03:41:39;3.97;;;2.00;;
77870;SDS011;67067;46.850;7.578;2023-04-25T03:42:47;5.93;;;2.53;;
77870;SDS011;67067;46.850;7.578;2023-04-25T03:43:53;3.60;;;2.03;;
77870;SDS011;67067;46.850;7.578;2023-04-25T03:44:55;5.10;;;2.25;;
77870;SDS011;67067;46.850;7.578;2023-04-25T03:47:01;3.03;;;1.95;;
77870;SDS011;67067;46.850;7.578;2023-04-25T03:48:03;3.08;;;2.10;;
77870;SDS011;67067;46.850;7.578;2023-04-25T03:50:25;2.53;;;2.28;;
77870;SDS011;67067;46.850;7.578;2023-04-25T03:51:27;4.15;;;1.92;;
77870;SDS011;67067;46.850;7.578;2023-04-25T03:52:29;3.75;;;2.15;;
77870;SDS011;67067;46.850;7.578;2023-04-25T03:53:31;3.35;;;2.00;;
77870;SDS011;67067;46.850;7.578;2023-04-25T03:54:52;2.72;;;1.70;;
77870;SDS011;67067;46.850;7.578;2023-04-25T03:55:55;8.77;;;1.95;;
77870;SDS011;67067;46.850;7.578;2023-04-25T03:56:57;7.35;;;2.15;;
77870;SDS011;67067;46.850;7.578;2023-04-25T03:58:02;2.92;;;2.15;;
77870;SDS011;67067;46.850;7.578;2023-04-25T03:59:04;3.42;;;2.20;;
77870;SDS011;67067;46.850;7.578;2023-04-25T04:01:13;3.45;;;2.35;;
77870;SDS011;67067;46.850;7.578;2023-04-25T04:02:15;7.47;;;2.28;;
77870;SDS011;67067;46.850;7.578;2023-04-25T04:03:18;7.50;;;2.30;;
77870;SDS011;67067;46.850;7.578;2023-04-25T04:04:22;2.80;;;2.05;;
77870;SDS011;67067;46.850;7.578;2023-04-25T04:05:24;7.72;;;2.88;;
77870;SDS011;67067;46.850;7.578;2023-04-25T04:06:29;4.80;;;1.85;;
77870;SDS011;67067;46.850;7.578;2023-04-25T04:07:38;6.53;;;2.38;;
77870;SDS011;67067;46.850;7.578;2023-04-25T04:08:43;7.40;;;2.25;;
77870;SDS011;67067;46.850;7.578;2023-04-25T04:09:45;4.55;;;2.13;;
77870;SDS011;67067;46.850;7.578;2023-04-25T04:10:53;4.18;;;2.50;;
77870;SDS011;67067;46.850;7.578;2023-04-25T04:11:55;2.88;;;2.30;;
77870;SDS011;67067;46.850;7.578;2023-04-25T04:13:58;2.55;;;2.33;;
77870;SDS011;67067;46.850;7.578;2023-04-25T04:16:02;6.50;;;2.58;;
77870;SDS011;67067;46.850;7.578;2023-04-25T04:17:05;3.53;;;1.83;;
77870;SDS011;67067;46.850;7.578;2023-04-25T04:18:09;5.03;;;2.30;;
77870;SDS011;67067;46.850;7.578;2023-04-25T04:19:12;3.80;;;2.20;;
77870;SDS011;67067;46.850;7.578;2023-04-25T04:20:18;9.30;;;2.42;;
77870;SDS011;67067;46.850;7.578;2023-04-25T04:21:20;5.32;;;2.40;;
77870;SDS011;67067;46.850;7.578;2023-04-25T04:22:24;5.72;;;2.70;;
77870;SDS011;67067;46.850;7.578;2023-04-25T04:23:29;4.72;;;2.65;;
77870;SDS011;67067;46.850;7.578;2023-04-25T04:24:33;6.40;;;2.55;;
77870;SDS011;67067;46.850;7.578;2023-04-25T04:25:38;4.43;;;2.22;;
77870;SDS011;67067;46.850;7.578;2023-04-25T04:27:13;4.63;;;2.65;;
77870;SDS011;67067;46.850;7.578;2023-04-25T04:28:27;4.18;;;2.28;;
77870;SDS011;67067;46.850;7.578;2023-04-25T04:29:33;5.07;;;2.22;;
77870;SDS011;67067;46.850;7.578;2023-04-25T04:32:30;6.07;;;2.50;;
77870;SDS011;67067;46.850;7.578;2023-04-25T04:33:35;4.15;;;2.17;;
77870;SDS011;67067;46.850;7.578;2023-04-25T04:34:39;6.75;;;2.40;;
77870;SDS011;67067;46.850;7.578;2023-04-25T04:35:41;6.20;;;2.53;;
77870;SDS011;67067;46.850;7.578;2023-04-25T04:36:44;5.72;;;3.10;;
77870;SDS011;67067;46.850;7.578;2023-04-25T04:37:49;7.38;;;2.58;;
77870;SDS011;67067;46.850;7.578;2023-04-25T04:38:53;4.70;;;2.67;;
77870;SDS011;67067;46.850;7.578;2023-04-25T04:40:06;4.72;;;2.40;;
77870;SDS011;67067;46.850;7.578;2023-04-25T04:41:18;6.68;;;2.67;;
77870;SDS011;67067;46.850;7.578;2023-04-25T04:42:30;7.70;;;2.30;;
77870;SDS011;67067;46.850;7.578;2023-04-25T04:43:40;6.43;;;2.50;;
77870;SDS011;67067;46.850;7.578;2023-04-25T04:44:49;5.22;;;2.70;;
77870;SDS011;67067;46.850;7.578;2023-04-25T04:46:19;4.72;;;2.50;;
77870;SDS011;67067;46.850;7.578;2023-04-25T04:47:31;4.97;;;2.83;;
77870;SDS011;67067;46.850;7.578;2023-04-25T04:50:14;3.55;;;2.50;;
77870;SDS011;67067;46.850;7.578;2023-04-25T04:51:52;3.95;;;2.92;;
77870;SDS011;67067;46.850;7.578;2023-04-25T04:53:11;4.38;;;3.08;;
77870;SDS011;67067;46.850;7.578;2023-04-25T04:54:31;3.53;;;2.67;;
77870;SDS011;67067;46.850;7.578;2023-04-25T04:55:49;6.53;;;2.80;;
77870;SDS011;67067;46.850;7.578;2023-04-25T04:57:11;7.43;;;3.30;;
77870;SDS011;67067;46.850;7.578;2023-04-25T04:58:33;5.28;;;3.00;;
77870;SDS011;67067;46.850;7.578;2023-04-25T05:00:00;4.93;;;2.85;;
77870;SDS011;67067;46.850;7.578;2023-04-25T05:01:23;6.15;;;2.70;;
77870;SDS011;67067;46.850;7.578;2023-04-25T05:02:42;5.28;;;2.67;;
77870;SDS011;67067;46.850;7.578;2023-04-25T05:04:01;5.65;;;2.72;;
77870;SDS011;67067;46.850;7.578;2023-04-25T05:05:29;8.27;;;2.97;;
77870;SDS011;67067;46.850;7.578;2023-04-25T05:06:48;8.88;;;2.45;;
77870;SDS011;67067;46.850;7.578;2023-04-25T05:07:49;7.38;;;3.00;;
77870;SDS011;67067;46.850;7.578;2023-04-25T05:09:00;6.03;;;2.85;;
77870;SDS011;67067;46.850;7.578;2023-04-25T05:10:19;5.55;;;2.47;;
77870;SDS011;67067;46.850;7.578;2023-04-25T05:11:38;5.53;;;2.90;;
77870;SDS011;67067;46.850;7.578;2023-04-25T05:12:59;5.45;;;2.65;;
77870;SDS011;67067;46.850;7.578;2023-04-25T05:14:34;4.82;;;2.80;;
77870;SDS011;67067;46.850;7.578;2023-04-25T05:15:50;3.53;;;2.33;;
77870;SDS011;67067;46.850;7.578;2023-04-25T05:17:30;4.60;;;2.05;;
77870;SDS011;67067;46.850;7.578;2023-04-25T05:18:39;2.40;;;2.20;;
77870;SDS011;67067;46.850;7.578;2023-04-25T05:19:55;6.72;;;2.80;;
77870;SDS011;67067;46.850;7.578;2023-04-25T05:21:08;5.30;;;2.58;;
77870;SDS011;67067;46.850;7.578;2023-04-25T05:22:36;6.65;;;2.92;;
77870;SDS011;67067;46.850;7.578;2023-04-25T05:23:47;4.07;;;2.33;;
77870;SDS011;67067;46.850;7.578;2023-04-25T05:25:15;4.43;;;2.67;;
77870;SDS011;67067;46.850;7.578;2023-04-25T05:26:36;4.85;;;2.60;;
77870;SDS011;67067;46.850;7.578;2023-04-25T05:27:58;7.60;;;2.88;;
77870;SDS011;67067;46.850;7.578;2023-04-25T05:29:18;7.72;;;2.90;;
77870;SDS011;67067;46.850;7.578;2023-04-25T05:30:36;6.43;;;2.83;;
77870;SDS011;67067;46.850;7.578;2023-04-25T05:32:51;4.30;;;2.70;;
77870;SDS011;67067;46.850;7.578;2023-04-25T05:34:58;5.78;;;2.58;;
77870;SDS011;67067;46.850;7.578;2023-04-25T05:36:05;3.97;;;2.55;;
77870;SDS011;67067;46.850;7.578;2023-04-25T05:37:10;5.78;;;2.40;;
77870;SDS011;67067;46.850;7.578;2023-04-25T05:38:23;4.57;;;2.80;;
77870;SDS011;67067;46.850;7.578;2023-04-25T05:39:51;7.25;;;2.85;;
77870;SDS011;67067;46.850;7.578;2023-04-25T05:41:06;8.10;;;2.65;;
77870;SDS011;67067;46.850;7.578;2023-04-25T05:42:26;6.20;;;3.00;;
77870;SDS011;67067;46.850;7.578;2023-04-25T05:43:41;4.68;;;2.90;;
77870;SDS011;67067;46.850;7.578;2023-04-25T05:44:58;4.80;;;2.53;;
77870;SDS011;67067;46.850;7.578;2023-04-25T05:46:32;4.68;;;2.38;;
77870;SDS011;67067;46.850;7.578;2023-04-25T05:47:54;4.97;;;2.65;;
77870;SDS011;67067;46.850;7.578;2023-04-25T05:49:28;6.20;;;2.47;;
77870;SDS011;67067;46.850;7.578;2023-04-25T05:50:55;6.25;;;2.55;;
77870;SDS011;67067;46.850;7.578;2023-04-25T05:52:16;5.75;;;2.90;;
77870;SDS011;67067;46.850;7.578;2023-04-25T05:53:24;6.90;;;2.67;;
77870;SDS011;67067;46.850;7.578;2023-04-25T05:54:33;3.63;;;2.50;;
77870;SDS011;67067;46.850;7.578;2023-04-25T05:55:36;4.75;;;2.72;;
77870;SDS011;67067;46.850;7.578;2023-04-25T05:56:53;5.88;;;2.92;;
77870;SDS011;67067;46.850;7.578;2023-04-25T05:57:54;7.43;;;3.50;;
77870;SDS011;67067;46.850;7.578;2023-04-25T05:58:56;7.00;;;3.33;;
77870;SDS011;67067;46.850;7.578;2023-04-25T06:01:13;16.92;;;8.27;;
77870;SDS011;67067;46.850;7.578;2023-04-25T06:02:18;18.73;;;9.25;;
77870;SDS011;67067;46.850;7.578;2023-04-25T06:03:23;28.63;;;16.08;;
77870;SDS011;67067;46.850;7.578;2023-04-25T06:04:27;19.13;;;10.05;;
77870;SDS011;67067;46.850;7.578;2023-04-25T06:05:30;17.85;;;8.98;;
77870;SDS011;67067;46.850;7.578;2023-04-25T06:06:33;8.85;;;5.13;;
77870;SDS011;67067;46.850;7.578;2023-04-25T06:07:34;11.23;;;5.25;;
77870;SDS011;67067;46.850;7.578;2023-04-25T06:08:37;11.18;;;5.57;;
77870;SDS011;67067;46.850;7.578;2023-04-25T06:09:39;5.00;;;3.33;;
77870;SDS011;67067;46.850;7.578;2023-04-25T06:10:43;4.85;;;3.10;;
77870;SDS011;67067;46.850;7.578;2023-04-25T06:11:44;5.13;;;2.83;;
77870;SDS011;67067;46.850;7.578;2023-04-25T06:13:49;6.90;;;3.75;;
77870;SDS011;67067;46.850;7.578;2023-04-25T06:14:52;6.20;;;3.50;;
77870;SDS011;67067;46.850;7.578;2023-04-25T06:15:54;3.38;;;2.75;;
77870;SDS011;67067;46.850;7.578;2023-04-25T06:16:55;3.70;;;2.80;;
77870;SDS011;67067;46.850;7.578;2023-04-25T06:17:57;7.15;;;2.95;;
77870;SDS011;67067;46.850;7.578;2023-04-25T06:18:59;7.57;;;3.40;;
77870;SDS011;67067;46.850;7.578;2023-04-25T06:20:01;6.05;;;2.88;;
77870;SDS011;67067;46.850;7.578;2023-04-25T06:21:06;4.25;;;2.90;;
77870;SDS011;67067;46.850;7.578;2023-04-25T06:23:14;5.20;;;2.60;;
77870;SDS011;67067;46.850;7.578;2023-04-25T06:24:30;4.10;;;2.50;;
77870;SDS011;67067;46.850;7.578;2023-04-25T06:25:32;7.47;;;2.90;;
77870;SDS011;67067;46.850;7.578;2023-04-25T06:26:34;4.60;;;3.08;;
77870;SDS011;67067;46.850;7.578;2023-04-25T06:27:37;5.00;;;3.13;;
77870;SDS011;67067;46.850;7.578;2023-04-25T06:28:39;6.05;;;3.10;;
77870;SDS011;67067;46.850;7.578;2023-04-25T06:29:42;4.15;;;2.95;;
77870;SDS011;67067;46.850;7.578;2023-04-25T06:30:44;5.28;;;2.88;;
77870;SDS011;67067;46.850;7.578;2023-04-25T06:31:51;5.75;;;3.00;;
77870;SDS011;67067;46.850;7.578;2023-04-25T06:32:54;5.45;;;3.15;;
77870;SDS011;67067;46.850;7.578;2023-04-25T06:33:57;6.05;;;2.90;;
77870;SDS011;67067;46.850;7.578;2023-04-25T06:35:04;10.10;;;3.40;;
77870;SDS011;67067;46.850;7.578;2023-04-25T06:36:08;6.97;;;3.30;;
77870;SDS011;67067;46.850;7.578;2023-04-25T06:37:19;8.05;;;3.17;;
77870;SDS011;67067;46.850;7.578;2023-04-25T06:38:28;5.13;;;3.30;;
77870;SDS011;67067;46.850;7.578;2023-04-25T06:39:31;4.97;;;3.30;;
77870;SDS011;67067;46.850;7.578;2023-04-25T06:40:33;6.45;;;3.30;;
77870;SDS011;67067;46.850;7.578;2023-04-25T06:41:37;7.70;;;2.90;;
77870;SDS011;67067;46.850;7.578;2023-04-25T06:42:41;4.43;;;3.03;;
77870;SDS011;67067;46.850;7.578;2023-04-25T06:44:15;7.13;;;2.97;;
77870;SDS011;67067;46.850;7.578;2023-04-25T06:45:26;8.77;;;3.30;;
77870;SDS011;67067;46.850;7.578;2023-04-25T06:47:32;4.97;;;3.20;;
77870;SDS011;67067;46.850;7.578;2023-04-25T06:48:35;4.75;;;3.03;;
77870;SDS011;67067;46.850;7.578;2023-04-25T06:49:39;5.40;;;3.22;;
77870;SDS011;67067;46.850;7.578;2023-04-25T06:50:43;4.05;;;3.03;;
77870;SDS011;67067;46.850;7.578;2023-04-25T06:51:46;4.70;;;3.30;;
77870;SDS011;67067;46.850;7.578;2023-04-25T06:52:48;6.10;;;3.13;;
77870;SDS011;67067;46.850;7.578;2023-04-25T06:53:51;3.30;;;3.00;;
77870;SDS011;67067;46.850;7.578;2023-04-25T06:55:01;6.40;;;3.00;;
77870;SDS011;67067;46.850;7.578;2023-04-25T06:56:20;31.10;;;17.50;;
77870;SDS011;67067;46.850;7.578;2023-04-25T06:57:41;25.58;;;12.80;;
77870;SDS011;67067;46.850;7.578;2023-04-25T06:59:20;8.70;;;5.85;;
77870;SDS011;67067;46.850;7.578;2023-04-25T07:01:24;19.73;;;8.43;;
77870;SDS011;67067;46.850;7.578;2023-04-25T07:02:26;6.75;;;3.30;;
77870;SDS011;67067;46.850;7.578;2023-04-25T07:03:28;4.88;;;3.10;;
77870;SDS011;67067;46.850;7.578;2023-04-25T07:04:34;7.05;;;3.70;;
77870;SDS011;67067;46.850;7.578;2023-04-25T07:05:38;14.43;;;10.57;;
77870;SDS011;67067;46.850;7.578;2023-04-25T07:07:45;6.47;;;3.60;;
77870;SDS011;67067;46.850;7.578;2023-04-25T07:08:47;5.07;;;3.50;;
77870;SDS011;67067;46.850;7.578;2023-04-25T07:09:49;4.10;;;3.50;;
77870;SDS011;67067;46.850;7.578;2023-04-25T07:11:56;6.45;;;4.28;;
77870;SDS011;67067;46.850;7.578;2023-04-25T07:12:58;6.75;;;3.50;;
77870;SDS011;67067;46.850;7.578;2023-04-25T07:14:02;5.72;;;3.47;;
77870;SDS011;67067;46.850;7.578;2023-04-25T07:15:04;4.78;;;3.47;;
77870;SDS011;67067;46.850;7.578;2023-04-25T07:16:09;7.13;;;3.45;;
77870;SDS011;67067;46.850;7.578;2023-04-25T07:17:11;5.05;;;3.00;;
77870;SDS011;67067;46.850;7.578;2023-04-25T07:19:17;6.55;;;3.28;;
77870;SDS011;67067;46.850;7.578;2023-04-25T07:20:19;4.97;;;3.22;;
77870;SDS011;67067;46.850;7.578;2023-04-25T07:21:23;5.28;;;3.00;;
77870;SDS011;67067;46.850;7.578;2023-04-25T07:22:25;6.43;;;3.15;;
77870;SDS011;67067;46.850;7.578;2023-04-25T07:23:28;4.55;;;3.05;;
77870;SDS011;67067;46.850;7.578;2023-04-25T07:24:30;4.53;;;2.90;;
77870;SDS011;67067;46.850;7.578;2023-04-25T07:25:32;7.40;;;3.20;;
77870;SDS011;67067;46.850;7.578;2023-04-25T07:26:35;5.43;;;2.78;;
77870;SDS011;67067;46.850;7.578;2023-04-25T07:28:06;3.35;;;2.75;;
77870;SDS011;67067;46.850;7.578;2023-04-25T07:30:12;6.05;;;2.80;;